Time;durP1;ratioP1;P1;durP2;ratioP2;P2;SDS_P1;SDS_P2;PMS_P1;PMS_P2;Temp;Humidity;BMP_temperature;BMP_pressure;BME280_temperature;BME280_humidity;BME280_pressure;Samples;Min_cycle;Max_cycle;Signal;HPM_P1;HPM_P2
2022/03/12 00:01:05;;;;;;;8.18;4.40;;;;;;;;;;5056084;28;20083;-73
2022/03/12 00:03:32;;;;;;;;;;;;;;;;;;5061195;28;20055;-73
2022/03/12 00:06:06;;;;;;;8.95;3.80;;;;;;;;;;5056834;28;19948;-73
2022/03/12 00:11:18;;;;;;;11.35;4.30;;;;;;;;;;5060241;28;19924;-73
2022/03/12 00:13:45;;;;;;;11.38;4.00;;;;;;;;;;5055318;28;20128;-73
2022/03/12 00:16:18;;;;;;;12.27;4.80;;;;;;;;;;5059104;28;20088;-73
2022/03/12 00:18:49;;;;;;;10.48;4.60;;;;;;;;;;5058546;28;20056;-74
2022/03/12 00:21:17;;;;;;;7.35;4.00;;;;;;;;;;5059362;28;20164;-73
2022/03/12 00:23:47;;;;;;;9.43;3.97;;;;;;;;;;5065952;28;20477;-73
2022/03/12 00:26:15;;;;;;;8.27;3.85;;;;;;;;;;5061592;28;20552;-73
2022/03/12 00:28:42;;;;;;;8.32;3.70;;;;;;;;;;5061067;28;20095;-73
2022/03/12 00:31:09;;;;;;;13.75;4.10;;;;;;;;;;5057801;28;20110;-73
2022/03/12 00:33:35;;;;;;;9.13;3.88;;;;;;;;;;5059810;28;20041;-73
2022/03/12 00:36:03;;;;;;;9.60;3.75;;;;;;;;;;5059891;28;20547;-73
2022/03/12 00:38:30;;;;;;;5.73;2.53;;;;;;;;;;5059800;28;20731;-74
2022/03/12 00:40:57;;;;;;;7.35;3.75;;;;;;;;;;5062403;28;20295;-73
2022/03/12 00:43:24;;;;;;;10.88;4.53;;;;;;;;;;5060160;28;20120;-73
2022/03/12 00:45:50;;;;;;;11.23;3.97;;;;;;;;;;5056896;28;20076;-73
2022/03/12 00:48:17;;;;;;;7.75;3.88;;;;;;;;;;5059410;28;20135;-74
2022/03/12 00:51:04;;;;;;;8.85;4.60;;;;;;;;;;5059210;28;20401;-74
2022/03/12 00:53:30;;;;;;;8.03;3.80;;;;;;;;;;5058179;28;20053;-73
2022/03/12 00:55:57;;;;;;;8.85;4.07;;;;;;;;;;5058950;28;20087;-73
2022/03/12 00:58:23;;;;;;;11.45;4.05;;;;;;;;;;5059425;28;20474;-74
2022/03/12 01:00:50;;;;;;;7.03;3.72;;;;;;;;;;5062741;28;20584;-74
2022/03/12 01:03:24;;;;;;;9.95;4.68;;;;;;;;;;5060446;28;20053;-73
2022/03/12 01:05:50;;;;;;;10.73;4.35;;;;;;;;;;5063144;28;20053;-73
2022/03/12 01:08:18;;;;;;;7.63;3.13;;;;;;;;;;5061719;28;20055;-74
2022/03/12 01:10:52;;;;;;;9.02;4.25;;;;;;;;;;5060477;28;20515;-74
2022/03/12 01:13:20;;;;;;;;;;;;;;;;;;5065973;28;20076;-74
2022/03/12 01:15:47;;;;;;;8.73;4.15;;;;;;;;;;5064789;28;19994;-75
2022/03/12 01:18:15;;;;;;;8.98;4.43;;;;;;;;;;5050340;28;20496;-74
2022/03/12 01:20:42;;;;;;;9.77;4.15;;;;;;;;;;5046418;28;20139;-74
2022/03/12 01:23:10;;;;;;;9.18;4.32;;;;;;;;;;5039233;28;20622;-74
2022/03/12 01:25:39;;;;;;;9.63;3.90;;;;;;;;;;5041647;28;20137;-74
2022/03/12 01:28:07;;;;;;;8.15;4.10;;;;;;;;;;5043337;28;20152;-74
2022/03/12 01:30:34;;;;;;;8.15;4.35;;;;;;;;;;5044611;28;20080;-74
2022/03/12 01:33:08;;;;;;;10.00;4.25;;;;;;;;;;5040637;28;20088;-74
2022/03/12 01:35:34;;;;;;;10.07;4.32;;;;;;;;;;5038719;28;20477;-74
2022/03/12 01:38:01;;;;;;;12.40;4.27;;;;;;;;;;5038714;28;20136;-74
2022/03/12 01:40:30;;;;;;;10.70;4.93;;;;;;;;;;5041574;28;20509;-75
2022/03/12 01:42:56;;;;;;;8.57;3.70;;;;;;;;;;5039083;28;20173;-74
2022/03/12 01:45:26;;;;;;;10.70;3.42;;;;;;;;;;5039409;28;20077;-74
2022/03/12 01:47:58;;;;;;;12.00;4.65;;;;;;;;;;5041505;28;20103;-74
2022/03/12 01:50:26;;;;;;;10.57;4.70;;;;;;;;;;5045138;28;20076;-74
2022/03/12 01:52:58;;;;;;;11.50;4.78;;;;;;;;;;5042825;28;20469;-74
2022/03/12 01:55:30;;;;;;;9.60;4.57;;;;;;;;;;5040280;28;20504;-74
2022/03/12 01:58:02;;;;;;;9.32;4.82;;;;;;;;;;5041564;28;20423;-74
2022/03/12 02:00:41;;;;;;;12.52;4.40;;;;;;;;;;5037524;28;20069;-74
2022/03/12 02:03:09;;;;;;;11.02;4.93;;;;;;;;;;5038168;28;20496;-74
2022/03/12 02:05:38;;;;;;;10.52;4.65;;;;;;;;;;5040594;28;20065;-74
2022/03/12 02:08:05;;;;;;;8.60;4.30;;;;;;;;;;5037051;28;20088;-74
2022/03/12 02:10:34;;;;;;;12.48;4.60;;;;;;;;;;5041294;28;20120;-74
2022/03/12 02:13:07;;;;;;;10.60;4.85;;;;;;;;;;5038559;28;20143;-74
2022/03/12 02:15:34;;;;;;;8.10;3.73;;;;;;;;;;5038737;28;20173;-74
2022/03/12 02:18:00;;;;;;;11.10;3.20;;;;;;;;;;5049463;28;20109;-74
2022/03/12 02:20:29;;;;;;;9.98;5.13;;;;;;;;;;5059621;28;20571;-75
2022/03/12 02:22:55;;;;;;;10.83;5.27;;;;;;;;;;5062152;28;20176;-74
2022/03/12 02:25:32;;;;;;;10.15;4.88;;;;;;;;;;5058694;28;20329;-74
2022/03/12 02:28:02;;;;;;;8.07;4.25;;;;;;;;;;5064815;28;20136;-74
2022/03/12 02:30:47;;;;;;;10.70;4.75;;;;;;;;;;5060120;28;20127;-74
2022/03/12 02:33:14;;;;;;;14.52;4.35;;;;;;;;;;5064219;28;20404;-74
2022/03/12 02:35:44;;;;;;;11.27;4.07;;;;;;;;;;5055331;28;20076;-74
2022/03/12 02:38:12;;;;;;;11.07;5.47;;;;;;;;;;5059911;28;20052;-74
2022/03/12 02:40:44;;;;;;;12.30;4.80;;;;;;;;;;5062359;28;20072;-74
2022/03/12 02:43:13;;;;;;;10.15;4.38;;;;;;;;;;5055898;28;20500;-75
2022/03/12 02:45:40;;;;;;;11.63;5.30;;;;;;;;;;5060361;28;20200;-74
2022/03/12 02:48:13;;;;;;;9.90;4.55;;;;;;;;;;5057468;28;20143;-74
2022/03/12 02:50:41;;;;;;;12.50;4.25;;;;;;;;;;5058488;28;20099;-74
2022/03/12 02:53:08;;;;;;;12.40;4.57;;;;;;;;;;5061694;28;20083;-74
2022/03/12 02:55:39;;;;;;;9.05;4.55;;;;;;;;;;5059791;28;20135;-74
2022/03/12 02:58:09;;;;;;;10.80;4.90;;;;;;;;;;5056676;28;20088;-74
2022/03/12 03:00:37;;;;;;;12.17;4.33;;;;;;;;;;5060392;28;20544;-74
2022/03/12 03:03:06;;;;;;;12.45;5.22;;;;;;;;;;5062176;28;20053;-74
2022/03/12 03:05:51;;;;;;;12.23;4.95;;;;;;;;;;5060146;28;20052;-74
2022/03/12 03:08:25;;;;;;;10.82;4.35;;;;;;;;;;5059084;28;20080;-74
2022/03/12 03:10:54;;;;;;;8.70;4.32;;;;;;;;;;5057184;28;20076;-74
2022/03/12 03:13:21;;;;;;;15.13;6.15;;;;;;;;;;5060720;28;20048;-75
2022/03/12 03:15:53;;;;;;;13.47;5.70;;;;;;;;;;5058508;28;20144;-74
2022/03/12 03:18:23;;;;;;;12.97;5.17;;;;;;;;;;5064163;28;20069;-74
2022/03/12 03:20:51;;;;;;;12.68;4.93;;;;;;;;;;5057478;28;20102;-74
2022/03/12 03:23:18;;;;;;;8.90;4.63;;;;;;;;;;5057966;28;20080;-74
2022/03/12 03:25:46;;;;;;;8.77;4.83;;;;;;;;;;5061056;28;20587;-74
2022/03/12 03:28:14;;;;;;;12.57;5.63;;;;;;;;;;5057839;28;20056;-74
2022/03/12 03:30:41;;;;;;;7.35;3.50;;;;;;;;;;5061992;28;20080;-74
2022/03/12 03:33:15;;;;;;;14.32;5.15;;;;;;;;;;5057339;28;20052;-74
2022/03/12 03:35:49;;;;;;;11.00;5.40;;;;;;;;;;5057567;28;20152;-74
2022/03/12 03:38:15;;;;;;;16.55;5.20;;;;;;;;;;5061176;28;20102;-74
2022/03/12 03:40:43;;;;;;;11.05;5.03;;;;;;;;;;5056857;28;20080;-74
2022/03/12 03:43:15;;;;;;;11.50;4.33;;;;;;;;;;5056857;28;20127;-75
2022/03/12 03:45:46;;;;;;;11.97;4.77;;;;;;;;;;5058146;28;20158;-74
2022/03/12 03:48:14;;;;;;;9.87;5.00;;;;;;;;;;5059882;28;20054;-74
2022/03/12 03:50:48;;;;;;;8.50;4.47;;;;;;;;;;5058343;28;20080;-75
2022/03/12 03:53:18;;;;;;;8.83;4.77;;;;;;;;;;5060271;28;20553;-74
2022/03/12 03:55:44;;;;;;;9.00;4.47;;;;;;;;;;5058067;28;20055;-75
2022/03/12 03:58:15;;;;;;;12.73;5.17;;;;;;;;;;5063162;28;20494;-74
2022/03/12 04:01:02;;;;;;;13.38;5.07;;;;;;;;;;5059279;28;20243;-75
2022/03/12 04:03:33;;;;;;;11.77;5.07;;;;;;;;;;5059464;28;20057;-74
2022/03/12 04:06:01;;;;;;;11.30;4.90;;;;;;;;;;5062670;28;20139;-74
2022/03/12 04:08:28;;;;;;;12.63;5.20;;;;;;;;;;5058573;28;20084;-75
2022/03/12 04:10:58;;;;;;;8.30;4.60;;;;;;;;;;5059764;28;20136;-74
2022/03/12 04:13:24;;;;;;;8.52;4.60;;;;;;;;;;5059760;28;20132;-74
2022/03/12 04:15:52;;;;;;;9.93;4.90;;;;;;;;;;5059339;28;20077;-74
2022/03/12 04:18:26;;;;;;;14.30;5.60;;;;;;;;;;5060389;28;20072;-74
2022/03/12 04:20:53;;;;;;;11.67;4.63;;;;;;;;;;5062674;28;20136;-74
2022/03/12 04:23:21;;;;;;;13.07;4.93;;;;;;;;;;5057420;28;20115;-74
2022/03/12 04:25:51;;;;;;;11.07;4.80;;;;;;;;;;5055110;28;20052;-73
2022/03/12 04:28:19;;;;;;;11.47;5.27;;;;;;;;;;5058876;28;20076;-74
2022/03/12 04:30:45;;;;;;;12.65;5.65;;;;;;;;;;5060574;28;20132;-74
2022/03/12 04:33:14;;;;;;;10.70;5.27;;;;;;;;;;5058969;28;20144;-73
2022/03/12 04:35:48;;;;;;;9.43;5.10;;;;;;;;;;5060080;28;20132;-74
2022/03/12 04:38:14;;;;;;;13.60;5.63;;;;;;;;;;5056196;28;20133;-74
2022/03/12 04:40:41;;;;;;;9.10;4.40;;;;;;;;;;5059222;28;20142;-74
2022/03/12 04:43:14;;;;;;;11.90;5.27;;;;;;;;;;5058100;28;20156;-74
2022/03/12 04:45:42;;;;;;;11.85;5.82;;;;;;;;;;5059533;28;20136;-74
2022/03/12 04:48:12;;;;;;;11.07;5.30;;;;;;;;;;5057990;28;20494;-74
2022/03/12 04:50:45;;;;;;;11.33;5.20;;;;;;;;;;5057765;28;20077;-74
2022/03/12 04:53:12;;;;;;;11.47;6.50;;;;;;;;;;5055542;28;20144;-74
2022/03/12 04:55:39;;;;;;;9.82;5.10;;;;;;;;;;5058534;28;20318;-74
2022/03/12 04:58:13;;;;;;;11.50;5.40;;;;;;;;;;5060692;28;20095;-75
2022/03/12 05:00:40;;;;;;;12.13;4.47;;;;;;;;;;5060445;28;20128;-76
2022/03/12 05:03:08;;;;;;;11.97;5.53;;;;;;;;;;5054726;28;20048;-76
2022/03/12 05:05:39;;;;;;;11.07;4.93;;;;;;;;;;5058354;28;20524;-76
2022/03/12 05:08:10;;;;;;;14.30;5.20;;;;;;;;;;5056126;28;20449;-77
2022/03/12 05:10:37;;;;;;;16.33;5.77;;;;;;;;;;5057521;28;20069;-76
2022/03/12 05:13:04;;;;;;;13.57;4.82;;;;;;;;;;5057882;28;20483;-76
2022/03/12 05:15:41;;;;;;;11.85;5.22;;;;;;;;;;5058680;28;20063;-76
2022/03/12 05:18:13;;;;;;;12.17;5.03;;;;;;;;;;5056185;28;20053;-77
2022/03/12 05:20:46;;;;;;;10.77;5.23;;;;;;;;;;5060526;28;20048;-77
2022/03/12 05:23:12;;;;;;;10.77;4.77;;;;;;;;;;5059132;28;20131;-77
2022/03/12 05:25:44;;;;;;;11.77;5.47;;;;;;;;;;5056052;28;20052;-77
2022/03/12 05:28:17;;;;;;;15.13;6.37;;;;;;;;;;5055242;28;20041;-77
2022/03/12 05:30:46;;;;;;;13.70;5.53;;;;;;;;;;5055035;28;20087;-77
2022/03/12 05:33:13;;;;;;;13.87;5.37;;;;;;;;;;5058631;28;20087;-77
2022/03/12 05:35:41;;;;;;;12.95;5.13;;;;;;;;;;5057326;28;20056;-77
2022/03/12 05:38:08;;;;;;;14.20;5.50;;;;;;;;;;5055366;28;20092;-77
2022/03/12 05:40:38;;;;;;;18.95;6.07;;;;;;;;;;5061638;28;20128;-76
2022/03/12 05:43:09;;;;;;;16.43;6.10;;;;;;;;;;5066118;28;20083;-77
2022/03/12 05:45:36;;;;;;;21.10;5.67;;;;;;;;;;5062078;28;20099;-74
2022/03/12 05:48:02;;;;;;;14.87;6.53;;;;;;;;;;5059905;28;20139;-74
2022/03/12 05:50:28;;;;;;;10.10;4.57;;;;;;;;;;5063531;28;20861;-74
2022/03/12 05:52:55;;;;;;;12.93;4.43;;;;;;;;;;5057763;28;20373;-74
2022/03/12 05:55:22;;;;;;;11.90;5.28;;;;;;;;;;5063012;28;20080;-75
2022/03/12 05:57:50;;;;;;;11.40;5.03;;;;;;;;;;5058818;28;20056;-75
2022/03/12 06:00:17;;;;;;;11.77;6.28;;;;;;;;;;5059400;28;20120;-75
2022/03/12 06:02:52;;;;;;;13.45;5.63;;;;;;;;;;5057863;28;20059;-75
2022/03/12 06:05:23;;;;;;;17.47;6.00;;;;;;;;;;5059090;28;20132;-75
2022/03/12 06:07:51;;;;;;;13.23;6.30;;;;;;;;;;5057899;28;20044;-75
2022/03/12 06:10:23;;;;;;;17.27;6.27;;;;;;;;;;5059782;28;20171;-74
2022/03/12 06:12:53;;;;;;;12.93;6.67;;;;;;;;;;5060100;28;20057;-74
2022/03/12 06:15:23;;;;;;;14.73;6.97;;;;;;;;;;5064108;28;20058;-74
2022/03/12 06:17:50;;;;;;;10.38;5.97;;;;;;;;;;5059733;28;20097;-75
2022/03/12 06:20:20;;;;;;;12.05;5.63;;;;;;;;;;5064909;28;20088;-75
2022/03/12 06:22:47;;;;;;;15.10;6.23;;;;;;;;;;5058189;28;20131;-75
2022/03/12 06:25:16;;;;;;;17.08;5.85;;;;;;;;;;5061315;28;20088;-75
2022/03/12 06:27:45;;;;;;;14.63;5.90;;;;;;;;;;5060382;28;20127;-74
2022/03/12 06:30:13;;;;;;;16.33;5.80;;;;;;;;;;5059548;28;20448;-74
2022/03/12 06:32:47;;;;;;;14.83;6.00;;;;;;;;;;5058696;28;20172;-74
2022/03/12 06:35:14;;;;;;;10.40;5.82;;;;;;;;;;5060483;28;20145;-73
2022/03/12 06:37:41;;;;;;;13.02;5.00;;;;;;;;;;5060651;28;20539;-73
2022/03/12 06:40:15;;;;;;;14.60;6.13;;;;;;;;;;5062986;28;20497;-74
2022/03/12 06:42:43;;;;;;;13.07;6.15;;;;;;;;;;5061403;28;20090;-74
2022/03/12 06:45:09;;;;;;;;;;;;;;;;;;5060815;28;20135;-74
2022/03/12 06:47:44;;;;;;;17.88;5.82;;;;;;;;;;5059983;28;19931;-73
2022/03/12 06:50:18;;;;;;;16.25;6.50;;;;;;;;;;5056980;28;20137;-74
2022/03/12 06:52:48;;;;;;;15.85;6.13;;;;;;;;;;5060311;28;20087;-73
2022/03/12 06:55:15;;;;;;;14.00;5.15;;;;;;;;;;5059548;28;20044;-74
2022/03/12 06:57:42;;;;;;;9.50;5.07;;;;;;;;;;5059836;28;20599;-74
2022/03/12 07:00:13;;;;;;;19.42;6.18;;;;;;;;;;5057598;28;20140;-73
2022/03/12 07:02:40;;;;;;;16.55;6.22;;;;;;;;;;5059286;28;20052;-73
2022/03/12 07:05:07;;;;;;;14.13;5.05;;;;;;;;;;5061597;28;20087;-73
2022/03/12 07:07:35;;;;;;;18.17;6.32;;;;;;;;;;5059640;28;20079;-73
2022/03/12 07:10:02;;;;;;;12.93;5.70;;;;;;;;;;5054253;28;20076;-73
2022/03/12 07:12:28;;;;;;;13.25;6.13;;;;;;;;;;5059965;28;20561;-72
2022/03/12 07:14:55;;;;;;;14.77;5.80;;;;;;;;;;5064930;28;20504;-72
2022/03/12 07:17:21;;;;;;;14.73;5.93;;;;;;;;;;5058722;28;20338;-72
2022/03/12 07:19:48;;;;;;;15.75;6.35;;;;;;;;;;5059430;28;20124;-72
2022/03/12 07:22:16;;;;;;;16.73;6.38;;;;;;;;;;5058312;28;20441;-72
2022/03/12 07:24:43;;;;;;;17.98;6.22;;;;;;;;;;5062290;28;20088;-72
2022/03/12 07:27:09;;;;;;;13.88;6.28;;;;;;;;;;5059433;28;20129;-72
2022/03/12 07:29:36;;;;;;;15.57;6.10;;;;;;;;;;5062647;28;20084;-72
2022/03/12 07:32:02;;;;;;;15.93;6.80;;;;;;;;;;5060421;28;20072;-71
2022/03/12 07:34:29;;;;;;;14.30;6.53;;;;;;;;;;5060600;28;20136;-73
2022/03/12 07:36:57;;;;;;;17.30;5.72;;;;;;;;;;5062949;28;20080;-72
2022/03/12 07:39:24;;;;;;;24.70;6.55;;;;;;;;;;5060672;28;20139;-70
2022/03/12 07:41:50;;;;;;;14.65;6.70;;;;;;;;;;5061921;28;20127;-69
2022/03/12 07:44:17;;;;;;;13.52;6.40;;;;;;;;;;5061487;28;20080;-69
2022/03/12 07:46:45;;;;;;;12.73;6.43;;;;;;;;;;5059325;28;20315;-69
2022/03/12 07:49:13;;;;;;;15.93;6.53;;;;;;;;;;5060287;28;20076;-69
2022/03/12 07:51:43;;;;;;;12.90;6.20;;;;;;;;;;5061977;28;20081;-69
2022/03/12 07:54:10;;;;;;;18.77;6.72;;;;;;;;;;5055645;28;20156;-69
2022/03/12 07:56:38;;;;;;;9.68;5.55;;;;;;;;;;5058621;28;20129;-70
2022/03/12 07:59:05;;;;;;;17.42;6.25;;;;;;;;;;5059567;28;20132;-70
2022/03/12 08:01:31;;;;;;;16.80;6.65;;;;;;;;;;5058938;28;20159;-70
2022/03/12 08:04:00;;;;;;;15.50;6.38;;;;;;;;;;5059824;28;20048;-70
2022/03/12 08:06:29;;;;;;;8.93;5.30;;;;;;;;;;5056889;28;20091;-70
2022/03/12 08:08:55;;;;;;;16.58;5.97;;;;;;;;;;5056796;28;20095;-70
2022/03/12 08:11:25;;;;;;;11.80;6.00;;;;;;;;;;5058617;28;20053;-70
2022/03/12 08:13:53;;;;;;;13.55;5.78;;;;;;;;;;5060296;28;20076;-70
2022/03/12 08:16:19;;;;;;;10.55;5.53;;;;;;;;;;5054207;28;20080;-69
2022/03/12 08:18:46;;;;;;;14.02;5.80;;;;;;;;;;5056710;28;20061;-69
2022/03/12 08:21:15;;;;;;;11.77;5.47;;;;;;;;;;5057343;28;20052;-69
2022/03/12 08:23:42;;;;;;;14.38;6.88;;;;;;;;;;5059697;28;20094;-69
2022/03/12 08:26:08;;;;;;;13.75;6.30;;;;;;;;;;5060141;28;20073;-68
2022/03/12 08:28:44;;;;;;;14.50;5.65;;;;;;;;;;5057649;28;20439;-69
2022/03/12 08:31:10;;;;;;;16.37;6.10;;;;;;;;;;5054195;28;20053;-68
2022/03/12 08:33:37;;;;;;;13.60;6.13;;;;;;;;;;5057414;28;20069;-71
2022/03/12 08:36:13;;;;;;;14.10;5.95;;;;;;;;;;5055250;28;20073;-71
2022/03/12 08:38:40;;;;;;;16.65;6.82;;;;;;;;;;5063823;28;20106;-71
2022/03/12 08:41:12;;;;;;;15.73;6.13;;;;;;;;;;5056143;28;20926;-71
2022/03/12 08:43:41;;;;;;;13.20;5.90;;;;;;;;;;5055423;28;20430;-72
2022/03/12 08:46:09;;;;;;;12.40;5.70;;;;;;;;;;5060723;28;20109;-71
2022/03/12 08:48:36;;;;;;;12.80;5.80;;;;;;;;;;5059306;28;20060;-71
2022/03/12 08:51:03;;;;;;;13.43;6.28;;;;;;;;;;5063946;28;20076;-71
2022/03/12 08:53:30;;;;;;;16.65;6.10;;;;;;;;;;5057480;28;20084;-71
2022/03/12 08:55:57;;;;;;;12.93;5.73;;;;;;;;;;5061233;28;20084;-71
2022/03/12 08:58:24;;;;;;;13.85;5.47;;;;;;;;;;5057044;28;20060;-71
2022/03/12 09:00:52;;;;;;;14.20;6.22;;;;;;;;;;5054241;28;20714;-71
2022/03/12 09:03:22;;;;;;;12.13;5.63;;;;;;;;;;5053793;28;20066;-71
2022/03/12 09:05:52;;;;;;;9.55;5.22;;;;;;;;;;5057181;28;20057;-72
2022/03/12 09:08:18;;;;;;;14.73;6.13;;;;;;;;;;5058203;28;20144;-71
2022/03/12 09:10:45;;;;;;;11.30;4.93;;;;;;;;;;5052185;28;20148;-71
2022/03/12 09:13:13;;;;;;;13.13;5.68;;;;;;;;;;5055768;28;20136;-70
2022/03/12 09:15:41;;;;;;;12.45;5.88;;;;;;;;;;5062694;28;20140;-70
2022/03/12 09:18:07;;;;;;;11.88;5.32;;;;;;;;;;5057358;28;20159;-72
2022/03/12 09:20:42;;;;;;;11.80;5.65;;;;;;;;;;5038346;28;20088;-72
2022/03/12 09:23:08;;;;;;;13.35;5.80;;;;;;;;;;5041851;28;20079;-69
2022/03/12 09:25:38;;;;;;;13.35;6.70;;;;;;;;;;5044128;28;20468;-69
2022/03/12 09:28:04;;;;;;;10.65;6.10;;;;;;;;;;5027103;28;20140;-69
2022/03/12 09:30:31;;;;;;;11.60;6.00;;;;;;;;;;5038230;28;20484;-69
2022/03/12 09:33:01;;;;;;;14.73;6.07;;;;;;;;;;5042031;28;20145;-69
2022/03/12 09:35:28;;;;;;;13.05;5.97;;;;;;;;;;5043273;28;20132;-70
2022/03/12 09:37:55;;;;;;;13.57;6.15;;;;;;;;;;5041107;28;20092;-69
2022/03/12 09:40:23;;;;;;;11.32;5.60;;;;;;;;;;5040492;28;20050;-69
2022/03/12 09:42:50;;;;;;;11.38;5.43;;;;;;;;;;5037519;28;20087;-69
2022/03/12 09:45:16;;;;;;;8.30;5.05;;;;;;;;;;5042086;28;20571;-69
2022/03/12 09:47:43;;;;;;;12.43;6.17;;;;;;;;;;5040370;28;20075;-69
2022/03/12 09:50:09;;;;;;;12.47;5.83;;;;;;;;;;5038879;28;20053;-69
2022/03/12 09:52:36;;;;;;;10.73;5.47;;;;;;;;;;5041282;28;20077;-69
2022/03/12 09:55:04;;;;;;;12.27;5.85;;;;;;;;;;5041435;28;20140;-69
2022/03/12 09:57:31;;;;;;;12.65;5.45;;;;;;;;;;5025101;28;20115;-69
2022/03/12 09:59:57;;;;;;;12.70;5.22;;;;;;;;;;5042107;28;20069;-69
2022/03/12 10:02:25;;;;;;;13.18;5.25;;;;;;;;;;5041267;28;20099;-69
2022/03/12 10:04:53;;;;;;;11.60;5.43;;;;;;;;;;5035938;28;20501;-69
2022/03/12 10:07:19;;;;;;;11.48;5.57;;;;;;;;;;5042394;28;20076;-69
2022/03/12 10:09:49;;;;;;;12.77;5.40;;;;;;;;;;5040166;28;20087;-69
2022/03/12 10:12:15;;;;;;;12.75;5.72;;;;;;;;;;5038899;28;20548;-69
2022/03/12 10:14:42;;;;;;;11.13;5.25;;;;;;;;;;5037629;28;20148;-69
2022/03/12 10:17:18;;;;;;;12.63;5.65;;;;;;;;;;5040724;28;20080;-69
2022/03/12 10:19:45;;;;;;;17.45;5.57;;;;;;;;;;5060045;28;20075;-69
2022/03/12 10:22:11;;;;;;;11.07;5.38;;;;;;;;;;5058253;28;20098;-69
2022/03/12 10:24:38;;;;;;;11.52;5.03;;;;;;;;;;5057521;28;20576;-69
2022/03/12 10:27:06;;;;;;;10.98;5.22;;;;;;;;;;5058990;28;20070;-69
2022/03/12 10:29:34;;;;;;;11.40;5.63;;;;;;;;;;5059427;28;20084;-69
2022/03/12 10:32:21;;;;;;;10.27;5.70;;;;;;;;;;5057341;28;20086;-69
2022/03/12 10:34:52;;;;;;;10.73;5.10;;;;;;;;;;5060270;28;20106;-69
2022/03/12 10:37:21;;;;;;;8.63;4.68;;;;;;;;;;5059507;28;20127;-69
2022/03/12 10:39:47;;;;;;;8.77;4.72;;;;;;;;;;5059364;28;20040;-69
2022/03/12 10:42:14;;;;;;;8.27;4.45;;;;;;;;;;5061104;28;20132;-69
2022/03/12 10:44:41;;;;;;;11.82;4.63;;;;;;;;;;5061039;28;20139;-69
2022/03/12 10:47:21;;;;;;;9.80;4.50;;;;;;;;;;5060336;28;20069;-69
2022/03/12 10:49:56;;;;;;;8.68;4.50;;;;;;;;;;5057536;28;20303;-69
2022/03/12 10:52:24;;;;;;;9.48;4.45;;;;;;;;;;5055545;28;20048;-69
2022/03/12 10:54:50;;;;;;;10.10;4.22;;;;;;;;;;5058702;28;20576;-69
2022/03/12 10:57:19;;;;;;;8.48;4.25;;;;;;;;;;5050209;28;20068;-69
2022/03/12 10:59:45;;;;;;;9.15;4.57;;;;;;;;;;5058020;28;20143;-69
2022/03/12 11:02:13;;;;;;;7.35;4.00;;;;;;;;;;5060988;28;20085;-68
2022/03/12 11:04:47;;;;;;;8.63;4.32;;;;;;;;;;5061001;28;20070;-68
2022/03/12 11:07:24;;;;;;;6.85;4.00;;;;;;;;;;5056022;28;20076;-68
2022/03/12 11:09:53;;;;;;;7.43;3.97;;;;;;;;;;5059513;28;20048;-68
2022/03/12 11:12:29;;;;;;;6.97;3.97;;;;;;;;;;5056222;28;20053;-69
2022/03/12 11:15:01;;;;;;;9.80;3.95;;;;;;;;;;5061526;28;20152;-69
2022/03/12 11:17:28;;;;;;;8.13;4.10;;;;;;;;;;5056129;28;20051;-68
2022/03/12 11:19:57;;;;;;;12.18;4.35;;;;;;;;;;5058127;28;20286;-69
2022/03/12 11:22:25;;;;;;;7.28;4.25;;;;;;;;;;5059031;28;20080;-68
2022/03/12 11:24:52;;;;;;;8.98;3.95;;;;;;;;;;5059959;28;20135;-68
2022/03/12 11:27:34;;;;;;;7.38;4.05;;;;;;;;;;5053812;28;20489;-69
2022/03/12 11:30:08;;;;;;;7.68;3.80;;;;;;;;;;5058894;28;20136;-69
2022/03/12 11:32:45;;;;;;;8.20;3.72;;;;;;;;;;5057324;28;20084;-68
2022/03/12 11:35:17;;;;;;;7.65;4.20;;;;;;;;;;5057861;28;20091;-68
2022/03/12 11:37:45;;;;;;;8.18;4.28;;;;;;;;;;5058803;28;20049;-69
2022/03/12 11:40:16;;;;;;;8.15;3.83;;;;;;;;;;5058592;28;20063;-68
2022/03/12 11:42:48;;;;;;;8.30;4.00;;;;;;;;;;5058623;28;20489;-69
2022/03/12 11:45:15;;;;;;;6.72;4.28;;;;;;;;;;5055655;28;20051;-69
2022/03/12 11:47:43;;;;;;;7.20;3.80;;;;;;;;;;5054540;28;20080;-68
2022/03/12 11:50:15;;;;;;;8.70;3.78;;;;;;;;;;5059360;28;20140;-68
2022/03/12 11:52:42;;;;;;;8.10;4.07;;;;;;;;;;5055148;28;20088;-68
2022/03/12 11:55:13;;;;;;;11.60;3.78;;;;;;;;;;5058317;28;20128;-68
2022/03/12 11:57:47;;;;;;;7.28;3.40;;;;;;;;;;5060405;28;20049;-69
2022/03/12 12:00:33;;;;;;;7.25;4.13;;;;;;;;;;5054652;28;20094;-68
2022/03/12 12:03:07;;;;;;;7.88;3.97;;;;;;;;;;5060547;28;20048;-68
2022/03/12 12:05:34;;;;;;;5.60;3.53;;;;;;;;;;5056910;28;20174;-68
2022/03/12 12:08:02;;;;;;;9.73;4.10;;;;;;;;;;5057550;28;20051;-68
2022/03/12 12:10:42;;;;;;;7.95;4.43;;;;;;;;;;5055230;28;20044;-69
2022/03/12 12:13:18;;;;;;;7.25;3.95;;;;;;;;;;5057147;28;20083;-69
2022/03/12 12:15:45;;;;;;;7.65;3.75;;;;;;;;;;5054098;28;20119;-68
2022/03/12 12:18:13;;;;;;;6.47;3.63;;;;;;;;;;5054754;28;20103;-68
2022/03/12 12:20:40;;;;;;;7.03;3.55;;;;;;;;;;5036079;28;20136;-69
2022/03/12 12:23:13;;;;;;;6.95;3.70;;;;;;;;;;5035596;28;20132;-68
2022/03/12 12:25:39;;;;;;;9.35;3.70;;;;;;;;;;5028345;28;20091;-68
2022/03/12 12:28:15;;;;;;;6.68;3.78;;;;;;;;;;5037850;28;20124;-69
2022/03/12 12:30:48;;;;;;;6.63;3.78;;;;;;;;;;5034925;28;20145;-68
2022/03/12 12:33:22;;;;;;;7.95;3.65;;;;;;;;;;5036528;28;20079;-68
2022/03/12 12:35:51;;;;;;;8.70;3.85;;;;;;;;;;5037060;28;20115;-68
2022/03/12 12:38:21;;;;;;;7.63;3.63;;;;;;;;;;5023388;28;20099;-68
2022/03/12 12:40:49;;;;;;;6.47;3.38;;;;;;;;;;5020802;28;20072;-69
2022/03/12 12:43:19;;;;;;;6.50;3.30;;;;;;;;;;5035449;28;20104;-69
2022/03/12 12:45:45;;;;;;;6.60;3.30;;;;;;;;;;5037923;28;20080;-68
2022/03/12 12:48:18;;;;;;;5.63;3.42;;;;;;;;;;5039761;28;20047;-68
2022/03/12 12:51:05;;;;;;;6.75;3.40;;;;;;;;;;5036481;28;20045;-69
2022/03/12 12:53:43;;;;;;;6.03;3.15;;;;;;;;;;5040987;28;20049;-68
2022/03/12 12:56:31;;;;;;;5.57;2.75;;;;;;;;;;5042622;28;20052;-68
2022/03/12 12:58:58;;;;;;;6.78;3.10;;;;;;;;;;5042553;28;20129;-67
2022/03/12 13:01:34;;;;;;;5.53;2.60;;;;;;;;;;5042463;28;20073;-67
2022/03/12 13:04:05;;;;;;;6.72;2.97;;;;;;;;;;5037660;28;20045;-67
2022/03/12 13:06:35;;;;;;;5.55;2.90;;;;;;;;;;5041665;28;20079;-67
2022/03/12 13:09:05;;;;;;;4.20;2.90;;;;;;;;;;5039351;28;20045;-67
2022/03/12 13:11:32;;;;;;;6.03;3.25;;;;;;;;;;5041245;28;20057;-67
2022/03/12 13:14:02;;;;;;;7.28;2.97;;;;;;;;;;5037520;28;20124;-68
2022/03/12 13:16:46;;;;;;;5.03;2.80;;;;;;;;;;5039998;28;20135;-68
2022/03/12 13:19:30;;;;;;;5.38;3.30;;;;;;;;;;5051802;28;20063;-68
2022/03/12 13:22:01;;;;;;;6.38;3.08;;;;;;;;;;5060904;28;20057;-68
2022/03/12 13:24:29;;;;;;;6.18;2.78;;;;;;;;;;5060865;28;20236;-67
2022/03/12 13:26:59;;;;;;;7.32;3.42;;;;;;;;;;5057741;28;20123;-68
2022/03/12 13:29:26;;;;;;;5.03;2.60;;;;;;;;;;5066235;28;20202;-67
2022/03/12 13:31:54;;;;;;;4.90;3.05;;;;;;;;;;5061108;28;20091;-67
2022/03/12 13:34:22;;;;;;;4.78;2.88;;;;;;;;;;5057667;28;20048;-68
2022/03/12 13:36:54;;;;;;;5.28;2.63;;;;;;;;;;5063068;28;20092;-67
2022/03/12 13:39:23;;;;;;;6.05;3.28;;;;;;;;;;5061932;28;20074;-67
2022/03/12 13:41:50;;;;;;;4.70;2.53;;;;;;;;;;5061070;28;20102;-67
2022/03/12 13:44:20;;;;;;;5.50;2.75;;;;;;;;;;5059809;28;20076;-67
2022/03/12 13:46:50;;;;;;;4.38;2.88;;;;;;;;;;5059576;28;20586;-68
2022/03/12 13:49:20;;;;;;;11.48;3.20;;;;;;;;;;5058762;28;20049;-67
2022/03/12 13:51:47;;;;;;;5.43;2.83;;;;;;;;;;5059392;28;20072;-67
2022/03/12 13:54:19;;;;;;;5.03;2.95;;;;;;;;;;5061063;28;20044;-67
2022/03/12 13:56:46;;;;;;;4.55;2.53;;;;;;;;;;5062559;28;20500;-67
2022/03/12 13:59:16;;;;;;;5.15;3.25;;;;;;;;;;5060355;28;20472;-67
2022/03/12 14:01:50;;;;;;;5.88;3.25;;;;;;;;;;5062776;28;20139;-68
2022/03/12 14:04:19;;;;;;;6.18;3.00;;;;;;;;;;5060181;28;20049;-68
2022/03/12 14:07:15;;;;;;;7.60;2.85;;;;;;;;;;5060652;28;20195;-68
2022/03/12 14:09:46;;;;;;;6.65;2.80;;;;;;;;;;5059007;28;20091;-69
2022/03/12 14:12:33;;;;;;;4.30;2.72;;;;;;;;;;5059355;28;20055;-69
2022/03/12 14:15:03;;;;;;;5.75;2.72;;;;;;;;;;5058968;28;20079;-69
2022/03/12 14:17:30;;;;;;;;;;;;;;;;;;5063672;28;20474;-69
2022/03/12 14:20:03;;;;;;;4.88;2.92;;;;;;;;;;5029780;28;20302;-69
2022/03/12 14:22:32;;;;;;;6.15;2.88;;;;;;;;;;5039440;28;20315;-69
2022/03/12 14:25:03;;;;;;;;;;;;;;;;;;5023645;28;20053;-69
2022/03/12 14:27:29;;;;;;;4.60;2.47;;;;;;;;;;5045799;28;20006;-69
2022/03/12 14:30:03;;;;;;;4.68;2.75;;;;;;;;;;5038680;28;20084;-69
2022/03/12 14:32:30;;;;;;;5.13;2.47;;;;;;;;;;5040552;28;20565;-69
2022/03/12 14:34:57;;;;;;;4.60;2.85;;;;;;;;;;5040817;28;20079;-68
2022/03/12 14:37:24;;;;;;;3.85;2.70;;;;;;;;;;5038697;28;20052;-68
2022/03/12 14:39:51;;;;;;;4.32;2.95;;;;;;;;;;5039920;28;20118;-68
2022/03/12 14:42:21;;;;;;;5.50;2.75;;;;;;;;;;5044220;28;20073;-68
2022/03/12 14:44:52;;;;;;;4.22;2.53;;;;;;;;;;5038108;28;20584;-68
2022/03/12 14:47:19;;;;;;;9.32;2.40;;;;;;;;;;5039910;28;20053;-68
2022/03/12 14:49:52;;;;;;;4.30;2.70;;;;;;;;;;5038567;28;20136;-68
2022/03/12 14:52:26;;;;;;;6.15;3.13;;;;;;;;;;5038623;28;20126;-68